Time;durP1;ratioP1;P1;durP2;ratioP2;P2;SDS_P1;SDS_P2;PMS_P1;PMS_P2;Temp;Humidity;BMP_temperature;BMP_pressure;BME280_temperature;BME280_humidity;BME280_pressure;Samples;Min_cycle;Max_cycle;Signal;HPM_P1;HPM_P2
2022/06/16 00:02:43;;;;;;;14.90;5.18;;;;;;;;;;4907710;29;20052;-75
2022/06/16 00:05:18;;;;;;;11.13;5.57;;;;;;;;;;4953298;29;20055;-74
2022/06/16 00:07:48;;;;;;;17.80;5.60;;;;;;;;;;4952703;29;20491;-76
2022/06/16 00:10:20;;;;;;;14.10;4.95;;;;;;;;;;4953231;29;20474;-76
2022/06/16 00:12:51;;;;;;;13.35;6.10;;;;;;;;;;4953077;29;20506;-75
2022/06/16 00:15:25;;;;;;;15.75;5.82;;;;;;;;;;4952750;29;20447;-75
2022/06/16 00:17:58;;;;;;;15.48;6.75;;;;;;;;;;4952542;29;20419;-76
2022/06/16 00:20:28;;;;;;;12.52;6.05;;;;;;;;;;4952973;29;20059;-74
2022/06/16 00:22:58;;;;;;;17.70;6.30;;;;;;;;;;4917636;29;20066;-75
2022/06/16 00:25:29;;;;;;;14.07;6.03;;;;;;;;;;4933510;29;20071;-75
2022/06/16 00:27:59;;;;;;;16.95;6.13;;;;;;;;;;4933421;29;20064;-74
2022/06/16 00:30:29;;;;;;;14.00;6.28;;;;;;;;;;4895451;29;20060;-75
2022/06/16 00:32:59;;;;;;;13.27;4.47;;;;;;;;;;4883311;29;20056;-75
2022/06/16 00:35:30;;;;;;;13.27;5.45;;;;;;;;;;4876973;29;20061;-74
2022/06/16 00:38:01;;;;;;;13.88;5.95;;;;;;;;;;4895423;29;20056;-74
2022/06/16 00:40:31;;;;;;;12.70;4.72;;;;;;;;;;4876325;29;20053;-75
2022/06/16 00:43:01;;;;;;;15.45;5.93;;;;;;;;;;4845639;29;20053;-75
2022/06/16 00:46:00;;;;;;;19.73;4.95;;;;;;;;;;4857955;29;20557;-72
2022/06/16 00:48:46;;;;;;;13.60;5.22;;;;;;;;;;4857923;29;20057;-75
2022/06/16 00:51:46;;;;;;;15.82;6.63;;;;;;;;;;4857947;29;20065;-74
2022/06/16 00:54:26;;;;;;;15.25;5.65;;;;;;;;;;4828213;29;20078;-73
2022/06/16 00:57:02;;;;;;;21.38;6.65;;;;;;;;;;4857821;29;20140;-74
2022/06/16 00:59:33;;;;;;;20.58;6.70;;;;;;;;;;4820984;29;20061;-74
2022/06/16 01:02:05;;;;;;;16.50;5.95;;;;;;;;;;4830144;29;20057;-72
2022/06/16 01:04:52;;;;;;;14.10;5.75;;;;;;;;;;4839570;29;20058;-73
2022/06/16 01:07:28;;;;;;;20.77;6.38;;;;;;;;;;4842803;29;20057;-70
2022/06/16 01:10:00;;;;;;;17.67;5.78;;;;;;;;;;4842286;29;20061;-72
2022/06/16 01:15:48;;;;;;;15.20;5.88;;;;;;;;;;4806854;29;20057;-73
2022/06/16 01:18:44;;;;;;;14.52;5.50;;;;;;;;;;4858911;29;20060;-74
2022/06/16 01:21:15;;;;;;;12.88;5.47;;;;;;;;;;4876076;29;20064;-74
2022/06/16 01:24:05;;;;;;;21.40;6.80;;;;;;;;;;4862658;29;20053;-74
2022/06/16 01:27:02;;;;;;;13.75;5.95;;;;;;;;;;4802378;29;20062;-74
2022/06/16 01:29:54;;;;;;;16.15;6.03;;;;;;;;;;4783721;29;20059;-74
2022/06/16 01:32:36;;;;;;;17.20;6.97;;;;;;;;;;4784299;29;20429;-74
2022/06/16 01:35:26;;;;;;;17.88;6.72;;;;;;;;;;4762749;30;20426;-74
2022/06/16 01:38:05;;;;;;;20.20;7.60;;;;;;;;;;4737459;30;20056;-72
2022/06/16 01:40:43;;;;;;;;;;;;;;;;;;4766402;30;20051;-73
2022/06/16 01:43:24;;;;;;;15.60;7.78;;;;;;;;;;4765896;30;20429;-73
2022/06/16 01:46:04;;;;;;;17.08;7.78;;;;;;;;;;4752001;30;20056;-73
2022/06/16 01:48:36;;;;;;;20.33;7.68;;;;;;;;;;4766209;30;20056;-73
2022/06/16 01:51:13;;;;;;;18.30;7.53;;;;;;;;;;4765665;30;20048;-73
2022/06/16 01:53:51;;;;;;;16.70;7.20;;;;;;;;;;4766256;30;20056;-73
2022/06/16 01:57:10;;;;;;;13.55;6.57;;;;;;;;;;4765395;30;20059;-73
2022/06/16 01:59:56;;;;;;;14.40;6.05;;;;;;;;;;4784120;30;20062;-73
2022/06/16 02:02:31;;;;;;;13.60;5.50;;;;;;;;;;4783676;30;20082;-73
2022/06/16 02:05:36;;;;;;;19.30;6.28;;;;;;;;;;4757617;30;20066;-72
2022/06/16 02:08:16;;;;;;;19.10;7.25;;;;;;;;;;4799566;29;20495;-75
2022/06/16 02:11:02;;;;;;;15.65;6.47;;;;;;;;;;4752282;30;20078;-74
2022/06/16 02:13:40;;;;;;;14.43;5.78;;;;;;;;;;4702032;30;20075;-74
2022/06/16 02:16:18;;;;;;;14.20;6.18;;;;;;;;;;4726295;30;20635;-74
2022/06/16 02:18:54;;;;;;;22.42;8.60;;;;;;;;;;4741783;30;20518;-74
2022/06/16 02:21:37;;;;;;;17.10;6.80;;;;;;;;;;4766430;30;20067;-73
2022/06/16 02:24:13;;;;;;;15.50;7.35;;;;;;;;;;4766248;30;20052;-74
2022/06/16 02:26:45;;;;;;;17.23;7.80;;;;;;;;;;4780524;30;20083;-74
2022/06/16 02:29:32;;;;;;;17.15;6.85;;;;;;;;;;4763681;30;20078;-72
2022/06/16 02:32:37;;;;;;;18.55;7.07;;;;;;;;;;4768681;30;20132;-74
2022/06/16 02:35:19;;;;;;;13.35;6.55;;;;;;;;;;4757578;29;20050;-75
2022/06/16 02:38:12;;;;;;;13.32;6.07;;;;;;;;;;4786784;29;20122;-75
2022/06/16 02:41:01;;;;;;;18.25;6.63;;;;;;;;;;4791053;29;20109;-74
2022/06/16 02:43:50;;;;;;;20.00;7.47;;;;;;;;;;4818028;29;20407;-75
2022/06/16 02:46:37;;;;;;;15.10;6.60;;;;;;;;;;4853082;29;20058;-75
2022/06/16 02:49:26;;;;;;;13.20;6.25;;;;;;;;;;4851646;29;20062;-75
2022/06/16 02:52:19;;;;;;;12.75;5.40;;;;;;;;;;4886044;29;20053;-74
2022/06/16 02:55:04;;;;;;;12.13;6.03;;;;;;;;;;4852790;29;20180;-75
2022/06/16 02:57:55;;;;;;;16.42;6.55;;;;;;;;;;4837703;29;20057;-74
2022/06/16 03:00:52;;;;;;;18.95;6.30;;;;;;;;;;4837893;29;20419;-74
2022/06/16 03:03:27;;;;;;;17.42;7.13;;;;;;;;;;4820781;29;20063;-74
2022/06/16 03:06:11;;;;;;;15.13;6.70;;;;;;;;;;4804679;29;20066;-75
2022/06/16 03:08:50;;;;;;;18.23;6.68;;;;;;;;;;4767837;30;20416;-74
2022/06/16 03:11:21;;;;;;;18.00;6.03;;;;;;;;;;4761385;30;20541;-74
2022/06/16 03:13:53;;;;;;;12.73;5.57;;;;;;;;;;4781676;29;20056;-74
2022/06/16 03:16:38;;;;;;;17.52;5.88;;;;;;;;;;4768442;30;20068;-74
2022/06/16 03:19:09;;;;;;;12.50;5.72;;;;;;;;;;4757153;29;20062;-73
2022/06/16 03:21:43;;;;;;;16.10;6.43;;;;;;;;;;4800610;29;20063;-72
2022/06/16 03:24:13;;;;;;;18.05;6.43;;;;;;;;;;4786832;29;20063;-74
2022/06/16 03:26:44;;;;;;;13.45;5.75;;;;;;;;;;4807835;29;20566;-73
2022/06/16 03:29:16;;;;;;;12.30;5.55;;;;;;;;;;4797826;29;20055;-73
2022/06/16 03:31:48;;;;;;;13.02;5.35;;;;;;;;;;4794838;29;20551;-73
2022/06/16 03:34:24;;;;;;;13.02;5.13;;;;;;;;;;4819577;29;20059;-74
2022/06/16 03:36:54;;;;;;;13.82;5.28;;;;;;;;;;4804396;29;20059;-74
2022/06/16 03:39:35;;;;;;;13.05;4.80;;;;;;;;;;4821903;29;20050;-73
2022/06/16 03:42:06;;;;;;;11.35;5.28;;;;;;;;;;4839462;29;20407;-72
2022/06/16 03:44:37;;;;;;;12.43;4.95;;;;;;;;;;4840530;29;20069;-73
2022/06/16 03:47:09;;;;;;;13.00;4.97;;;;;;;;;;4858813;29;20054;-74
2022/06/16 03:49:43;;;;;;;14.20;5.20;;;;;;;;;;4840253;29;20099;-74
2022/06/16 03:52:13;;;;;;;12.35;5.25;;;;;;;;;;4813986;29;20054;-73
2022/06/16 03:54:49;;;;;;;13.20;5.63;;;;;;;;;;4821916;29;20078;-72
2022/06/16 03:57:20;;;;;;;11.40;5.10;;;;;;;;;;4821862;29;20055;-73
2022/06/16 03:59:50;;;;;;;19.88;6.30;;;;;;;;;;4821956;29;20051;-73
2022/06/16 04:02:34;;;;;;;12.25;4.85;;;;;;;;;;4808996;29;20066;-73
2022/06/16 04:05:08;;;;;;;12.18;5.20;;;;;;;;;;4825527;29;20059;-72
2022/06/16 04:07:43;;;;;;;14.27;5.55;;;;;;;;;;4836905;29;20061;-73
2022/06/16 04:10:19;;;;;;;11.80;5.53;;;;;;;;;;4839824;29;20399;-72
2022/06/16 04:12:50;;;;;;;17.30;5.03;;;;;;;;;;4821422;29;20553;-73
2022/06/16 04:15:26;;;;;;;10.52;5.07;;;;;;;;;;4820970;29;20065;-73
2022/06/16 04:17:59;;;;;;;13.80;5.55;;;;;;;;;;4792528;29;20183;-74
2022/06/16 04:20:36;;;;;;;13.70;5.57;;;;;;;;;;4821394;29;20059;-73
2022/06/16 04:23:27;;;;;;;12.77;6.35;;;;;;;;;;4809299;29;20051;-73
2022/06/16 04:25:58;;;;;;;11.85;5.13;;;;;;;;;;4703516;30;20052;-73
2022/06/16 04:28:29;;;;;;;13.70;4.97;;;;;;;;;;4767158;30;20100;-72
2022/06/16 04:31:00;;;;;;;13.00;5.20;;;;;;;;;;4768784;29;20051;-73
2022/06/16 04:33:35;;;;;;;13.75;5.68;;;;;;;;;;4734228;30;20060;-72
2022/06/16 04:36:09;;;;;;;13.80;5.30;;;;;;;;;;4802417;29;20427;-72
2022/06/16 04:38:48;;;;;;;9.73;5.00;;;;;;;;;;4821047;29;20061;-73
2022/06/16 04:41:23;;;;;;;12.93;4.97;;;;;;;;;;4821024;29;20058;-72
2022/06/16 04:43:54;;;;;;;11.32;4.78;;;;;;;;;;4803496;29;20419;-72
2022/06/16 04:46:27;;;;;;;12.85;5.03;;;;;;;;;;4801137;29;20062;-73
2022/06/16 04:48:58;;;;;;;11.80;5.38;;;;;;;;;;4768552;30;20062;-73
2022/06/16 04:51:36;;;;;;;12.38;5.10;;;;;;;;;;4743084;30;20536;-73
2022/06/16 04:54:11;;;;;;;10.80;5.25;;;;;;;;;;4757856;30;20067;-71
2022/06/16 04:57:04;;;;;;;15.00;5.20;;;;;;;;;;4752947;30;20502;-72
2022/06/16 04:59:54;;;;;;;9.77;4.85;;;;;;;;;;4731625;30;20458;-72
2022/06/16 05:03:00;;;;;;;10.55;4.35;;;;;;;;;;4713972;30;20056;-72
2022/06/16 05:05:56;;;;;;;12.07;4.82;;;;;;;;;;4735537;30;20555;-71
2022/06/16 05:08:53;;;;;;;10.85;4.35;;;;;;;;;;4709922;30;20057;-72
2022/06/16 05:11:42;;;;;;;10.80;4.25;;;;;;;;;;4726360;30;20065;-72
2022/06/16 05:14:23;;;;;;;13.48;4.63;;;;;;;;;;4726069;30;20178;-71
2022/06/16 05:17:15;;;;;;;14.20;5.25;;;;;;;;;;4710943;30;20061;-72
2022/06/16 05:20:16;;;;;;;11.05;4.85;;;;;;;;;;4689848;30;20401;-69
2022/06/16 05:23:32;;;;;;;10.10;4.60;;;;;;;;;;4714183;30;20057;-71
2022/06/16 05:26:24;;;;;;;10.95;4.70;;;;;;;;;;4742975;30;20506;-73
2022/06/16 05:29:06;;;;;;;9.40;4.45;;;;;;;;;;4748014;30;20048;-70
2022/06/16 05:31:55;;;;;;;10.38;4.75;;;;;;;;;;4748887;30;21226;-71
2022/06/16 05:34:29;;;;;;;12.35;5.10;;;;;;;;;;4718299;30;20069;-70
2022/06/16 05:37:09;;;;;;;10.00;4.68;;;;;;;;;;4696796;30;20061;-72
2022/06/16 05:40:12;;;;;;;10.32;4.85;;;;;;;;;;4748584;30;20055;-71
2022/06/16 05:43:03;;;;;;;9.45;4.75;;;;;;;;;;4756618;30;20056;-71
2022/06/16 05:46:12;;;;;;;10.45;4.78;;;;;;;;;;4745671;30;20049;-72
2022/06/16 05:48:45;;;;;;;11.50;5.55;;;;;;;;;;4717040;30;20057;-72
2022/06/16 05:51:16;;;;;;;10.77;4.55;;;;;;;;;;4716339;30;20052;-72
2022/06/16 05:54:04;;;;;;;8.95;4.05;;;;;;;;;;4718874;30;20063;-72
2022/06/16 05:56:38;;;;;;;10.30;4.70;;;;;;;;;;4752305;30;20505;-72
2022/06/16 05:59:06;;;;;;;11.23;4.78;;;;;;;;;;4746966;30;20060;-72
2022/06/16 06:01:52;;;;;;;13.13;5.38;;;;;;;;;;4743299;30;20060;-69
2022/06/16 06:04:35;;;;;;;13.85;5.53;;;;;;;;;;4747051;30;20060;-71
2022/06/16 06:07:08;;;;;;;11.77;5.65;;;;;;;;;;4748095;30;20060;-72
2022/06/16 06:18:06;;;;;;;10.93;4.38;;;;;;;;;;4747798;30;20121;-71
2022/06/16 06:20:37;;;;;;;10.85;4.07;;;;;;;;;;4739212;30;20062;-70
2022/06/16 06:23:08;;;;;;;10.05;4.60;;;;;;;;;;4753796;30;20051;-70
2022/06/16 06:25:40;;;;;;;9.70;4.43;;;;;;;;;;4748303;30;20190;-70
2022/06/16 06:28:16;;;;;;;11.82;5.10;;;;;;;;;;4721444;30;20062;-72
2022/06/16 06:30:46;;;;;;;11.70;4.53;;;;;;;;;;4695591;30;20057;-71
2022/06/16 06:33:17;;;;;;;9.98;4.45;;;;;;;;;;4696124;30;20088;-70
2022/06/16 06:35:48;;;;;;;9.48;4.15;;;;;;;;;;4681585;30;20062;-72
2022/06/16 06:38:18;;;;;;;11.73;4.40;;;;;;;;;;4726987;30;20065;-70
2022/06/16 06:40:48;;;;;;;9.82;3.92;;;;;;;;;;4728003;30;20050;-71
2022/06/16 06:43:18;;;;;;;9.35;3.97;;;;;;;;;;4698978;30;20830;-71
2022/06/16 06:45:49;;;;;;;10.85;4.20;;;;;;;;;;4713547;30;20439;-70
2022/06/16 06:48:19;;;;;;;11.18;4.40;;;;;;;;;;4698930;30;20073;-70
2022/06/16 06:50:49;;;;;;;10.63;5.15;;;;;;;;;;4699407;30;20061;-72
2022/06/16 06:53:19;;;;;;;14.57;5.05;;;;;;;;;;4736885;30;20060;-71
2022/06/16 06:55:50;;;;;;;10.20;4.50;;;;;;;;;;4744227;29;20058;-72
2022/06/16 06:58:22;;;;;;;10.43;4.68;;;;;;;;;;4805214;29;20051;-71
2022/06/16 07:00:58;;;;;;;12.38;4.50;;;;;;;;;;4849271;29;20061;-72
2022/06/16 07:03:31;;;;;;;10.60;4.47;;;;;;;;;;4880473;29;20057;-72
2022/06/16 07:06:04;;;;;;;10.20;4.53;;;;;;;;;;4897141;29;20056;-71
2022/06/16 07:08:34;;;;;;;9.73;4.18;;;;;;;;;;4919200;29;20436;-71
2022/06/16 07:11:04;;;;;;;8.13;3.67;;;;;;;;;;4937625;29;20403;-71
2022/06/16 07:13:34;;;;;;;10.57;4.35;;;;;;;;;;4937059;29;20585;-72
2022/06/16 07:16:05;;;;;;;9.35;4.22;;;;;;;;;;4936841;29;20048;-71
2022/06/16 07:18:35;;;;;;;8.35;3.58;;;;;;;;;;4937116;29;20044;-72
2022/06/16 07:21:06;;;;;;;11.48;4.13;;;;;;;;;;4919283;29;20052;-71
2022/06/16 07:23:35;;;;;;;10.00;3.97;;;;;;;;;;4936978;29;20083;-71
2022/06/16 07:26:11;;;;;;;8.07;4.03;;;;;;;;;;4919379;29;20060;-72
2022/06/16 07:28:42;;;;;;;9.50;3.97;;;;;;;;;;4918819;29;20060;-72
2022/06/16 07:31:12;;;;;;;13.52;4.00;;;;;;;;;;4936869;29;20036;-72
2022/06/16 07:34:02;;;;;;;10.15;3.80;;;;;;;;;;4937102;29;20051;-72
2022/06/16 07:36:32;;;;;;;10.18;3.95;;;;;;;;;;4936793;29;20048;-71
2022/06/16 07:39:05;;;;;;;11.88;4.18;;;;;;;;;;4936406;29;20399;-70
2022/06/16 07:41:36;;;;;;;8.25;3.92;;;;;;;;;;4918852;29;20055;-70
2022/06/16 07:44:14;;;;;;;8.65;3.90;;;;;;;;;;4936408;29;20047;-71
2022/06/16 07:46:49;;;;;;;8.13;3.60;;;;;;;;;;4936830;29;20047;-71
2022/06/16 07:49:25;;;;;;;9.50;3.65;;;;;;;;;;4933826;29;20416;-72
2022/06/16 07:51:58;;;;;;;8.57;3.75;;;;;;;;;;4918731;29;20388;-71
2022/06/16 07:54:29;;;;;;;8.77;3.97;;;;;;;;;;4936640;29;20055;-70
2022/06/16 07:57:21;;;;;;;8.73;3.45;;;;;;;;;;4950221;29;20425;-70
2022/06/16 07:59:59;;;;;;;8.68;3.55;;;;;;;;;;4905356;29;20558;-72
2022/06/16 08:02:29;;;;;;;8.18;3.50;;;;;;;;;;4922319;29;20059;-71
2022/06/16 08:04:59;;;;;;;9.55;4.28;;;;;;;;;;4953232;29;20063;-71
2022/06/16 08:07:29;;;;;;;8.95;4.18;;;;;;;;;;4921515;29;20067;-71
2022/06/16 08:10:00;;;;;;;8.25;3.33;;;;;;;;;;4953131;29;20101;-71
2022/06/16 08:12:30;;;;;;;10.57;3.92;;;;;;;;;;4952609;29;20634;-70
2022/06/16 08:15:00;;;;;;;8.98;3.78;;;;;;;;;;4922217;29;20055;-71
2022/06/16 08:17:33;;;;;;;11.15;4.15;;;;;;;;;;4920844;29;20059;-71
2022/06/16 08:20:05;;;;;;;9.40;3.92;;;;;;;;;;4952801;29;20059;-71
2022/06/16 08:22:38;;;;;;;9.30;4.63;;;;;;;;;;4952764;29;20051;-70
2022/06/16 08:25:12;;;;;;;9.57;3.78;;;;;;;;;;4952613;29;20047;-69
2022/06/16 08:27:44;;;;;;;8.43;3.55;;;;;;;;;;4914356;29;20052;-71
2022/06/16 08:30:17;;;;;;;10.02;4.22;;;;;;;;;;4911638;29;20069;-71
2022/06/16 08:32:52;;;;;;;9.25;3.63;;;;;;;;;;4895478;29;20056;-70
2022/06/16 08:35:22;;;;;;;7.25;3.40;;;;;;;;;;4895554;29;20055;-70
2022/06/16 08:37:52;;;;;;;9.80;4.30;;;;;;;;;;4864444;29;21220;-71
2022/06/16 08:40:23;;;;;;;9.73;4.38;;;;;;;;;;4849307;29;20048;-72
2022/06/16 08:43:06;;;;;;;13.23;3.97;;;;;;;;;;4880669;29;20045;-71
2022/06/16 08:45:42;;;;;;;10.98;3.20;;;;;;;;;;4895220;29;20052;-71
2022/06/16 08:48:26;;;;;;;8.88;3.50;;;;;;;;;;4880273;29;20382;-71
2022/06/16 08:50:57;;;;;;;9.18;3.53;;;;;;;;;;4864233;29;20063;-70
2022/06/16 08:53:55;;;;;;;9.55;3.53;;;;;;;;;;4895347;29;20064;-71
2022/06/16 08:57:20;;;;;;;9.65;3.50;;;;;;;;;;4895157;29;20056;-71
2022/06/16 09:00:05;;;;;;;5.72;2.78;;;;;;;;;;4842674;29;20054;-71
2022/06/16 09:02:47;;;;;;;9.02;3.72;;;;;;;;;;4843010;29;20053;-70
2022/06/16 09:05:53;;;;;;;8.10;3.35;;;;;;;;;;4875518;29;20164;-71
2022/06/16 09:08:30;;;;;;;7.78;3.45;;;;;;;;;;4842011;29;20548;-72
2022/06/16 09:11:32;;;;;;;8.48;3.35;;;;;;;;;;4857874;29;20065;-71
2022/06/16 09:14:20;;;;;;;5.88;2.95;;;;;;;;;;4857555;29;20065;-71
2022/06/16 09:17:11;;;;;;;8.63;3.38;;;;;;;;;;4857838;29;20065;-71
2022/06/16 09:19:48;;;;;;;7.97;3.28;;;;;;;;;;4827275;29;20057;-71
2022/06/16 09:22:29;;;;;;;9.05;3.40;;;;;;;;;;4857710;29;20060;-70
2022/06/16 09:25:13;;;;;;;10.27;3.22;;;;;;;;;;4841890;29;20506;-70
2022/06/16 09:28:11;;;;;;;6.80;3.60;;;;;;;;;;4857559;29;20113;-70
2022/06/16 09:30:44;;;;;;;7.63;2.85;;;;;;;;;;4826969;29;20062;-71
2022/06/16 09:33:27;;;;;;;8.10;2.97;;;;;;;;;;4823907;29;20049;-69
2022/06/16 09:36:11;;;;;;;7.07;3.05;;;;;;;;;;4852100;29;20064;-71
2022/06/16 09:39:15;;;;;;;5.55;2.72;;;;;;;;;;4875945;29;20069;-71
2022/06/16 09:42:33;;;;;;;6.72;3.33;;;;;;;;;;4875624;29;20065;-70
2022/06/16 09:45:31;;;;;;;5.68;2.50;;;;;;;;;;4875656;29;20048;-70
2022/06/16 09:48:18;;;;;;;8.10;2.75;;;;;;;;;;4875765;29;20473;-71
2022/06/16 09:51:07;;;;;;;8.13;3.17;;;;;;;;;;4875725;29;20056;-70
2022/06/16 09:53:54;;;;;;;8.57;3.25;;;;;;;;;;4875494;29;20061;-71
2022/06/16 09:56:47;;;;;;;5.95;2.85;;;;;;;;;;4829979;29;20061;-71
2022/06/16 09:59:30;;;;;;;8.55;3.10;;;;;;;;;;4838482;29;20054;-70
2022/06/16 10:02:21;;;;;;;7.53;3.33;;;;;;;;;;4838464;29;20065;-72
2022/06/16 10:04:55;;;;;;;9.90;3.17;;;;;;;;;;4838766;29;20069;-67
2022/06/16 10:07:57;;;;;;;7.32;3.28;;;;;;;;;;4811525;29;20059;-68
2022/06/16 10:10:48;;;;;;;7.28;2.97;;;;;;;;;;4787178;29;20054;-68
2022/06/16 10:13:55;;;;;;;7.47;2.90;;;;;;;;;;4823053;29;20054;-67
2022/06/16 10:16:46;;;;;;;10.32;3.05;;;;;;;;;;4808689;29;20106;-68
2022/06/16 10:19:18;;;;;;;7.50;3.17;;;;;;;;;;4824074;29;20071;-68
2022/06/16 10:21:49;;;;;;;5.78;2.60;;;;;;;;;;4823700;29;20065;-67
2022/06/16 10:24:23;;;;;;;7.00;3.33;;;;;;;;;;4823603;29;20058;-67
2022/06/16 10:26:58;;;;;;;8.88;2.85;;;;;;;;;;4778888;29;20065;-67
2022/06/16 10:29:32;;;;;;;10.00;3.38;;;;;;;;;;4823559;29;20063;-67
2022/06/16 10:32:14;;;;;;;6.90;3.35;;;;;;;;;;4778638;29;20065;-68
2022/06/16 10:34:52;;;;;;;7.97;3.20;;;;;;;;;;4793790;29;20062;-68
2022/06/16 10:37:29;;;;;;;8.30;3.45;;;;;;;;;;4884913;29;20441;-69
2022/06/16 10:40:12;;;;;;;7.72;3.05;;;;;;;;;;4897846;29;20040;-68
2022/06/16 10:42:54;;;;;;;7.63;3.13;;;;;;;;;;4897588;29;20053;-69
2022/06/16 10:45:29;;;;;;;7.88;2.90;;;;;;;;;;4844389;29;20634;-68
2022/06/16 10:48:12;;;;;;;6.45;2.53;;;;;;;;;;4860249;29;20567;-69
2022/06/16 10:51:11;;;;;;;13.85;3.33;;;;;;;;;;4875204;29;20159;-68
2022/06/16 10:53:48;;;;;;;6.10;3.03;;;;;;;;;;4897419;29;20060;-69
2022/06/16 10:56:23;;;;;;;7.78;3.22;;;;;;;;;;4897346;29;20068;-68
2022/06/16 10:59:27;;;;;;;7.40;3.30;;;;;;;;;;4915730;29;20067;-68
2022/06/16 11:02:26;;;;;;;7.53;2.80;;;;;;;;;;4878597;29;20060;-68
2022/06/16 11:05:25;;;;;;;12.82;3.05;;;;;;;;;;4840912;29;20061;-68
2022/06/16 11:08:09;;;;;;;7.15;3.40;;;;;;;;;;4786923;30;20062;-68
2022/06/16 11:11:01;;;;;;;8.27;3.17;;;;;;;;;;4774947;30;20055;-68
2022/06/16 11:13:38;;;;;;;7.22;3.03;;;;;;;;;;4787179;30;20059;-68
2022/06/16 11:16:12;;;;;;;9.82;3.50;;;;;;;;;;4756941;30;20535;-69
2022/06/16 11:18:44;;;;;;;9.07;3.65;;;;;;;;;;4786667;30;20443;-68
2022/06/16 11:21:21;;;;;;;8.13;3.55;;;;;;;;;;4787129;30;20513;-68
2022/06/16 11:23:54;;;;;;;9.63;3.58;;;;;;;;;;4800425;29;20063;-69
2022/06/16 11:26:34;;;;;;;7.63;3.28;;;;;;;;;;4804752;29;20220;-68
2022/06/16 11:29:11;;;;;;;8.75;3.22;;;;;;;;;;4789439;29;20083;-69
2022/06/16 11:31:46;;;;;;;8.23;3.83;;;;;;;;;;4804385;29;20061;-69
2022/06/16 11:34:22;;;;;;;10.85;4.47;;;;;;;;;;4804368;29;20059;-69
2022/06/16 11:37:01;;;;;;;;;;;;;;;;;;4808367;29;20062;-69
2022/06/16 11:39:49;;;;;;;12.10;4.53;;;;;;;;;;4822703;29;19932;-69
2022/06/16 11:42:53;;;;;;;12.38;5.75;;;;;;;;;;4829745;29;20069;-69
2022/06/16 11:45:51;;;;;;;17.63;5.55;;;;;;;;;;4861274;29;20066;-70
2022/06/16 11:48:46;;;;;;;17.85;7.90;;;;;;;;;;4934337;29;20056;-70
2022/06/16 11:51:40;;;;;;;24.52;13.13;;;;;;;;;;4905813;29;20059;-70
2022/06/16 11:54:17;;;;;;;24.70;11.25;;;;;;;;;;4934358;29;20062;-70
2022/06/16 11:57:03;;;;;;;32.95;17.42;;;;;;;;;;4914815;29;20048;-70
2022/06/16 11:59:51;;;;;;;29.17;11.35;;;;;;;;;;4915080;29;20123;-71
2022/06/16 12:02:39;;;;;;;33.92;15.05;;;;;;;;;;4896066;29;20087;-70
2022/06/16 12:05:27;;;;;;;28.58;13.30;;;;;;;;;;4896040;29;20048;-71
2022/06/16 12:08:12;;;;;;;29.95;14.05;;;;;;;;;;4895924;29;20472;-71
2022/06/16 12:10:48;;;;;;;38.53;17.88;;;;;;;;;;4877256;29;20053;-72
2022/06/16 12:14:11;;;;;;;44.17;21.92;;;;;;;;;;4877124;29;20124;-71
2022/06/16 12:17:04;;;;;;;36.20;19.20;;;;;;;;;;4829265;29;20070;-70
2022/06/16 12:19:40;;;;;;;35.70;20.60;;;;;;;;;;4840245;29;20065;-70
2022/06/16 12:22:19;;;;;;;35.38;17.17;;;;;;;;;;4824528;29;20065;-71
2022/06/16 12:25:18;;;;;;;33.60;17.20;;;;;;;;;;4857955;29;20057;-70
2022/06/16 12:28:00;;;;;;;38.15;19.95;;;;;;;;;;4783930;30;20055;-70
2022/06/16 12:31:13;;;;;;;29.05;15.32;;;;;;;;;;4749812;30;20068;-70
2022/06/16 12:34:34;;;;;;;31.60;15.48;;;;;;;;;;4709579;30;20093;-71
2022/06/16 12:37:08;;;;;;;22.25;11.90;;;;;;;;;;4682769;30;20057;-71
2022/06/16 12:39:46;;;;;;;25.02;14.43;;;;;;;;;;4697279;30;20061;-71
2022/06/16 12:42:20;;;;;;;20.67;12.70;;;;;;;;;;4697128;30;20061;-72
2022/06/16 12:44:59;;;;;;;28.77;11.57;;;;;;;;;;4668764;30;20058;-72
2022/06/16 12:47:50;;;;;;;;;;;;;;;;;;4694665;30;20066;-72
2022/06/16 12:50:39;;;;;;;32.97;14.27;;;;;;;;;;4665352;30;19923;-72
2022/06/16 12:53:10;;;;;;;21.85;11.20;;;;;;;;;;4679739;30;20061;-71
2022/06/16 12:55:50;;;;;;;20.70;11.27;;;;;;;;;;4679886;30;20062;-73
2022/06/16 12:58:26;;;;;;;20.52;10.80;;;;;;;;;;4665728;30;20065;-72
2022/06/16 13:00:59;;;;;;;26.83;11.05;;;;;;;;;;4679706;30;20068;-71
2022/06/16 13:03:56;;;;;;;29.92;13.75;;;;;;;;;;4704294;30;20059;-72
2022/06/16 13:06:41;;;;;;;22.02;10.65;;;;;;;;;;5109726;27;20999;-71
2022/06/16 13:09:13;;;;;;;19.75;9.20;;;;;;;;;;5109423;28;20044;-72
2022/06/16 13:11:52;;;;;;;25.98;15.77;;;;;;;;;;5057058;28;20063;-70
2022/06/16 13:14:39;;;;;;;22.33;10.07;;;;;;;;;;5109383;28;20055;-72
2022/06/16 13:17:13;;;;;;;19.98;10.43;;;;;;;;;;5107051;28;20051;-73
2022/06/16 13:19:53;;;;;;;23.23;11.85;;;;;;;;;;5090288;28;20511;-72
2022/06/16 13:22:31;;;;;;;20.83;10.32;;;;;;;;;;5106991;28;20048;-72
2022/06/16 13:25:08;;;;;;;55.40;24.77;;;;;;;;;;5109158;28;20040;-73
2022/06/16 13:27:38;;;;;;;23.08;12.60;;;;;;;;;;5090238;28;20052;-74
2022/06/16 13:30:08;;;;;;;22.73;11.75;;;;;;;;;;5090202;28;21178;-74
2022/06/16 13:32:50;;;;;;;21.45;12.55;;;;;;;;;;5089865;28;20052;-73
2022/06/16 13:35:25;;;;;;;30.45;18.02;;;;;;;;;;5085679;28;20538;-74
2022/06/16 13:38:03;;;;;;;23.92;12.15;;;;;;;;;;5086029;28;20064;-74
2022/06/16 13:40:35;;;;;;;24.48;11.38;;;;;;;;;;5085957;28;20048;-74
2022/06/16 13:43:07;;;;;;;;;;;;;;;;;;5086681;28;20486;-75
2022/06/16 13:45:37;;;;;;;26.90;11.20;;;;;;;;;;5086034;28;19920;-75
2022/06/16 13:48:08;;;;;;;24.40;13.73;;;;;;;;;;5085986;28;20503;-73
2022/06/16 13:50:44;;;;;;;21.63;11.52;;;;;;;;;;5052465;28;20048;-75
2022/06/16 13:53:43;;;;;;;24.45;13.63;;;;;;;;;;5086217;28;20048;-77
2022/06/16 13:56:23;;;;;;;27.13;12.32;;;;;;;;;;5085936;28;20059;-75
2022/06/16 13:59:11;;;;;;;26.13;13.65;;;;;;;;;;5085639;28;20052;-76
2022/06/16 14:02:01;;;;;;;27.55;13.85;;;;;;;;;;5085828;28;20052;-76
2022/06/16 14:04:31;;;;;;;21.92;12.70;;;;;;;;;;5085269;28;20055;-76
2022/06/16 14:07:07;;;;;;;27.02;14.05;;;;;;;;;;5052768;28;20056;-77
2022/06/16 14:09:48;;;;;;;30.88;15.68;;;;;;;;;;5085641;28;20459;-77
2022/06/16 14:12:42;;;;;;;22.13;11.80;;;;;;;;;;5090218;28;20048;-77
2022/06/16 14:15:47;;;;;;;21.27;11.57;;;;;;;;;;5106074;28;20052;-76
2022/06/16 14:18:24;;;;;;;23.73;10.90;;;;;;;;;;5092136;28;20210;-75
2022/06/16 14:21:08;;;;;;;18.88;8.30;;;;;;;;;;5092252;28;20055;-76
2022/06/16 14:24:18;;;;;;;12.55;5.70;;;;;;;;;;5092239;28;20052;-76
2022/06/16 14:26:49;;;;;;;18.33;7.53;;;;;;;;;;5031994;28;20053;-77
2022/06/16 14:29:24;;;;;;;15.70;7.28;;;;;;;;;;4998966;28;20049;-77
2022/06/16 14:32:07;;;;;;;6.57;3.15;;;;;;;;;;5031812;28;20064;-76
2022/06/16 14:35:12;;;;;;;15.65;5.97;;;;;;;;;;4984777;28;20053;-77
2022/06/16 14:37:54;;;;;;;19.83;8.75;;;;;;;;;;5031441;28;20156;-75
2022/06/16 14:40:35;;;;;;;17.60;6.22;;;;;;;;;;5031654;28;20045;-75
2022/06/16 14:43:30;;;;;;;9.82;3.88;;;;;;;;;;5031631;28;20494;-77
2022/06/16 14:46:09;;;;;;;19.45;8.43;;;;;;;;;;4960021;28;20119;-76
2022/06/16 14:48:43;;;;;;;21.85;10.02;;;;;;;;;;4943822;28;20051;-75
2022/06/16 14:51:17;;;;;;;5.28;2.83;;;;;;;;;;4972411;28;20047;-76
2022/06/16 14:53:52;;;;;;;4.20;1.83;;;;;;;;;;4972650;28;20058;-75
2022/06/16 14:56:23;;;;;;;4.53;2.20;;;;;;;;;;4953028;28;20458;-77
2022/06/16 14:58:58;;;;;;;6.60;3.90;;;;;;;;;;4953462;28;20071;-75
2022/06/16 15:01:35;;;;;;;8.60;1.80;;;;;;;;;;4953335;28;20047;-76
2022/06/16 15:04:10;;;;;;;6.80;1.90;;;;;;;;;;4963343;28;20062;-74
2022/06/16 15:06:47;;;;;;;7.03;2.15;;;;;;;;;;4972349;28;20047;-77
2022/06/16 15:09:25;;;;;;;4.50;1.90;;;;;;;;;;4972208;28;20077;-74
2022/06/16 15:11:59;;;;;;;4.70;2.63;;;;;;;;;;4972173;28;20058;-76
2022/06/16 15:14:31;;;;;;;4.03;2.10;;;;;;;;;;4972490;28;20050;-77
2022/06/16 15:19:57;;;;;;;4.50;1.80;;;;;;;;;;4972075;28;20097;-77
2022/06/16 15:22:37;;;;;;;2.40;1.30;;;;;;;;;;4966918;28;20057;-74
2022/06/16 15:25:10;;;;;;;3.50;1.25;;;;;;;;;;5030702;28;20068;-75
2022/06/16 15:27:50;;;;;;;4.05;1.50;;;;;;;;;;4982116;28;20054;-73
2022/06/16 15:30:32;;;;;;;4.57;1.35;;;;;;;;;;5034226;28;20140;-72
2022/06/16 15:36:16;;;;;;;3.58;1.42;;;;;;;;;;4991292;28;20057;-72
2022/06/16 15:38:49;;;;;;;3.10;1.50;;;;;;;;;;4952432;29;20451;-77
2022/06/16 15:41:35;;;;;;;2.80;1.42;;;;;;;;;;4864432;29;20640;-76
2022/06/16 15:44:12;;;;;;;3.85;1.00;;;;;;;;;;4914429;29;20048;-77
2022/06/16 15:46:46;;;;;;;2.10;1.20;;;;;;;;;;4914100;29;20521;-76
2022/06/16 15:49:25;;;;;;;2.42;1.10;;;;;;;;;;4898453;29;20052;-77
2022/06/16 15:51:57;;;;;;;;;;;;;;;;;;4895563;29;20528;-75
2022/06/16 15:54:30;;;;;;;2.05;0.90;;;;;;;;;;4895376;29;19930;-76
2022/06/16 15:57:03;;;;;;;2.95;1.00;;;;;;;;;;4895096;29;20075;-77
2022/06/16 15:59:51;;;;;;;3.03;1.48;;;;;;;;;;4895408;29;20060;-77
2022/06/16 16:02:23;;;;;;;1.85;0.98;;;;;;;;;;4895200;29;20072;-72
2022/06/16 16:05:01;;;;;;;2.88;1.00;;;;;;;;;;4895181;29;20440;-74
2022/06/16 16:07:37;;;;;;;2.08;1.10;;;;;;;;;;4894960;29;20071;-76
2022/06/16 16:10:15;;;;;;;3.22;1.00;;;;;;;;;;4894755;29;20071;-75